sensor_id;sensor_type;location;lat;lon;timestamp;pressure;altitude;pressure_sealevel;temperature;humidity
7178;BME280;3630;42.146;24.756;2023-02-14T00:00:26;100899.53;;;5.43;51.67
7178;BME280;3630;42.146;24.756;2023-02-14T00:02:53;100901.13;;;5.41;52.44
7178;BME280;3630;42.146;24.756;2023-02-14T00:05:21;100904.66;;;5.43;51.23
7178;BME280;3630;42.146;24.756;2023-02-14T00:07:48;100906.44;;;5.30;51.65
7178;BME280;3630;42.146;24.756;2023-02-14T00:10:15;100894.78;;;5.34;51.83
7178;BME280;3630;42.146;24.756;2023-02-14T00:12:43;100886.88;;;5.29;51.38
7178;BME280;3630;42.146;24.756;2023-02-14T00:15:10;100899.88;;;5.34;52.13
7178;BME280;3630;42.146;24.756;2023-02-14T00:17:48;100884.03;;;5.25;51.40
7178;BME280;3630;42.146;24.756;2023-02-14T00:20:15;100904.09;;;5.33;51.82
7178;BME280;3630;42.146;24.756;2023-02-14T00:22:42;100886.50;;;5.23;51.11
7178;BME280;3630;42.146;24.756;2023-02-14T00:25:09;100901.09;;;5.26;50.92
7178;BME280;3630;42.146;24.756;2023-02-14T00:27:36;100905.25;;;5.38;50.19
7178;BME280;3630;42.146;24.756;2023-02-14T00:30:06;100875.53;;;5.24;50.82
7178;BME280;3630;42.146;24.756;2023-02-14T00:32:33;100905.00;;;5.49;49.99
7178;BME280;3630;42.146;24.756;2023-02-14T00:35:02;100902.66;;;5.52;49.98
7178;BME280;3630;42.146;24.756;2023-02-14T00:37:29;100911.25;;;5.54;49.65
7178;BME280;3630;42.146;24.756;2023-02-14T00:39:56;100894.00;;;5.50;49.53
7178;BME280;3630;42.146;24.756;2023-02-14T00:42:23;100862.94;;;5.27;49.85
7178;BME280;3630;42.146;24.756;2023-02-14T00:44:49;100893.31;;;5.52;49.43
7178;BME280;3630;42.146;24.756;2023-02-14T00:47:17;100894.38;;;5.56;49.46
7178;BME280;3630;42.146;24.756;2023-02-14T00:49:44;100887.94;;;5.48;49.52
7178;BME280;3630;42.146;24.756;2023-02-14T00:52:11;100900.69;;;5.48;49.72
7178;BME280;3630;42.146;24.756;2023-02-14T00:54:38;100904.38;;;5.53;49.53
7178;BME280;3630;42.146;24.756;2023-02-14T00:57:05;100908.97;;;5.58;49.54
7178;BME280;3630;42.146;24.756;2023-02-14T00:59:31;100907.41;;;5.60;48.78
7178;BME280;3630;42.146;24.756;2023-02-14T01:01:58;100899.91;;;5.49;49.48
7178;BME280;3630;42.146;24.756;2023-02-14T01:04:26;100906.75;;;5.50;48.55
7178;BME280;3630;42.146;24.756;2023-02-14T01:06:53;100889.16;;;5.40;49.10
7178;BME280;3630;42.146;24.756;2023-02-14T01:09:20;100903.56;;;5.39;49.34
7178;BME280;3630;42.146;24.756;2023-02-14T01:11:47;100902.69;;;5.38;49.24
7178;BME280;3630;42.146;24.756;2023-02-14T01:14:14;100896.63;;;5.36;49.45
7178;BME280;3630;42.146;24.756;2023-02-14T01:16:41;100890.91;;;5.26;49.89
7178;BME280;3630;42.146;24.756;2023-02-14T01:19:07;100892.94;;;5.31;49.54
7178;BME280;3630;42.146;24.756;2023-02-14T01:21:36;100848.63;;;5.15;49.31
7178;BME280;3630;42.146;24.756;2023-02-14T01:24:05;100875.28;;;5.34;49.55
7178;BME280;3630;42.146;24.756;2023-02-14T01:26:33;100880.28;;;5.33;48.72
7178;BME280;3630;42.146;24.756;2023-02-14T01:29:00;100871.03;;;5.20;50.03
7178;BME280;3630;42.146;24.756;2023-02-14T01:31:29;100862.53;;;5.34;48.80
7178;BME280;3630;42.146;24.756;2023-02-14T01:33:58;100869.47;;;5.37;48.83
7178;BME280;3630;42.146;24.756;2023-02-14T01:36:26;100848.88;;;5.19;49.92
7178;BME280;3630;42.146;24.756;2023-02-14T01:38:56;100879.50;;;5.34;49.87
7178;BME280;3630;42.146;24.756;2023-02-14T01:41:28;100879.16;;;5.43;50.42
7178;BME280;3630;42.146;24.756;2023-02-14T01:43:58;100857.97;;;5.29;50.63
7178;BME280;3630;42.146;24.756;2023-02-14T01:46:27;100871.16;;;5.36;50.11
7178;BME280;3630;42.146;24.756;2023-02-14T01:48:57;100875.47;;;5.38;49.79
7178;BME280;3630;42.146;24.756;2023-02-14T01:51:26;100872.22;;;5.40;49.74
7178;BME280;3630;42.146;24.756;2023-02-14T01:53:55;100878.53;;;5.47;48.87
7178;BME280;3630;42.146;24.756;2023-02-14T01:56:26;100869.31;;;5.49;48.75
7178;BME280;3630;42.146;24.756;2023-02-14T01:58:58;100861.88;;;5.52;48.64
7178;BME280;3630;42.146;24.756;2023-02-14T02:01:28;100820.34;;;5.25;49.32
7178;BME280;3630;42.146;24.756;2023-02-14T02:03:58;100849.44;;;5.58;49.08
7178;BME280;3630;42.146;24.756;2023-02-14T02:06:28;100850.84;;;5.53;49.37
7178;BME280;3630;42.146;24.756;2023-02-14T02:09:06;100840.13;;;5.58;48.82
7178;BME280;3630;42.146;24.756;2023-02-14T02:11:34;100836.81;;;5.59;48.66
7178;BME280;3630;42.146;24.756;2023-02-14T02:14:02;100845.50;;;5.63;48.50
7178;BME280;3630;42.146;24.756;2023-02-14T02:16:59;100828.09;;;5.56;48.48
7178;BME280;3630;42.146;24.756;2023-02-14T02:23:03;100835.31;;;5.63;48.35
7178;BME280;3630;42.146;24.756;2023-02-14T02:26:06;100831.94;;;5.64;48.85
7178;BME280;3630;42.146;24.756;2023-02-14T02:28:57;100829.16;;;5.59;48.36
7178;BME280;3630;42.146;24.756;2023-02-14T02:31:41;100833.91;;;5.68;47.94
7178;BME280;3630;42.146;24.756;2023-02-14T02:34:34;100832.94;;;5.66;47.71
7178;BME280;3630;42.146;24.756;2023-02-14T02:37:23;100828.88;;;5.69;48.41
7178;BME280;3630;42.146;24.756;2023-02-14T02:40:03;100821.41;;;5.58;48.21
7178;BME280;3630;42.146;24.756;2023-02-14T02:42:36;100835.31;;;5.63;48.43
7178;BME280;3630;42.146;24.756;2023-02-14T02:45:12;100833.53;;;5.62;49.00
7178;BME280;3630;42.146;24.756;2023-02-14T02:47:50;100837.22;;;5.67;48.51
7178;BME280;3630;42.146;24.756;2023-02-14T02:50:24;100826.50;;;5.58;48.57
7178;BME280;3630;42.146;24.756;2023-02-14T02:53:17;100826.44;;;5.56;48.28
7178;BME280;3630;42.146;24.756;2023-02-14T02:55:51;100825.81;;;5.60;49.05
7178;BME280;3630;42.146;24.756;2023-02-14T02:58:40;100821.41;;;5.58;48.63
7178;BME280;3630;42.146;24.756;2023-02-14T03:01:10;100816.16;;;5.55;48.96
7178;BME280;3630;42.146;24.756;2023-02-14T03:03:38;100810.53;;;5.60;48.40
7178;BME280;3630;42.146;24.756;2023-02-14T03:06:24;100818.44;;;5.65;49.26
7178;BME280;3630;42.146;24.756;2023-02-14T03:08:52;100811.19;;;5.58;48.26
7178;BME280;3630;42.146;24.756;2023-02-14T03:11:19;100802.59;;;5.56;48.25
7178;BME280;3630;42.146;24.756;2023-02-14T03:14:06;100799.63;;;5.48;48.17
7178;BME280;3630;42.146;24.756;2023-02-14T03:16:49;100801.63;;;5.39;49.24
7178;BME280;3630;42.146;24.756;2023-02-14T03:19:44;100804.13;;;5.38;49.11
7178;BME280;3630;42.146;24.756;2023-02-14T03:22:42;100805.78;;;5.37;48.90
7178;BME280;3630;42.146;24.756;2023-02-14T03:25:20;100749.53;;;5.05;49.34
7178;BME280;3630;42.146;24.756;2023-02-14T03:27:55;100790.94;;;5.30;48.69
7178;BME280;3630;42.146;24.756;2023-02-14T03:30:29;100742.31;;;4.98;49.50
7178;BME280;3630;42.146;24.756;2023-02-14T03:33:03;100782.66;;;5.19;49.16
7178;BME280;3630;42.146;24.756;2023-02-14T03:35:33;100786.00;;;5.18;49.38
7178;BME280;3630;42.146;24.756;2023-02-14T03:38:05;100787.03;;;5.22;49.14
7178;BME280;3630;42.146;24.756;2023-02-14T03:40:39;100785.13;;;5.18;49.22
7178;BME280;3630;42.146;24.756;2023-02-14T03:43:09;100780.97;;;5.20;49.53
7178;BME280;3630;42.146;24.756;2023-02-14T03:45:41;100791.97;;;5.19;50.07
7178;BME280;3630;42.146;24.756;2023-02-14T03:48:13;100782.38;;;5.15;49.31
7178;BME280;3630;42.146;24.756;2023-02-14T03:50:41;100794.44;;;5.17;49.38
7178;BME280;3630;42.146;24.756;2023-02-14T03:53:10;100772.97;;;5.14;49.59
7178;BME280;3630;42.146;24.756;2023-02-14T03:55:48;100789.25;;;5.16;49.79
7178;BME280;3630;42.146;24.756;2023-02-14T03:58:21;100805.06;;;5.25;49.45
7178;BME280;3630;42.146;24.756;2023-02-14T04:00:51;100806.19;;;5.15;49.50
7178;BME280;3630;42.146;24.756;2023-02-14T04:03:23;100805.56;;;5.19;49.38
7178;BME280;3630;42.146;24.756;2023-02-14T04:05:51;100798.81;;;5.20;48.77
7178;BME280;3630;42.146;24.756;2023-02-14T04:08:23;100798.22;;;5.24;49.27
7178;BME280;3630;42.146;24.756;2023-02-14T04:10:52;100789.88;;;5.26;48.98
7178;BME280;3630;42.146;24.756;2023-02-14T04:13:19;100773.34;;;5.20;49.25
7178;BME280;3630;42.146;24.756;2023-02-14T04:15:46;100771.94;;;5.25;48.72
7178;BME280;3630;42.146;24.756;2023-02-14T04:18:13;100781.16;;;5.23;48.77
7178;BME280;3630;42.146;24.756;2023-02-14T04:20:57;100772.44;;;5.19;49.23
7178;BME280;3630;42.146;24.756;2023-02-14T04:23:24;100758.75;;;5.17;49.40
7178;BME280;3630;42.146;24.756;2023-02-14T04:25:52;100765.69;;;5.20;49.62
7178;BME280;3630;42.146;24.756;2023-02-14T04:28:19;100762.53;;;5.09;48.72
7178;BME280;3630;42.146;24.756;2023-02-14T04:30:46;100730.66;;;5.01;49.34
7178;BME280;3630;42.146;24.756;2023-02-14T04:33:12;100759.72;;;5.19;48.82
7178;BME280;3630;42.146;24.756;2023-02-14T04:35:39;100754.91;;;5.09;49.20
7178;BME280;3630;42.146;24.756;2023-02-14T04:38:06;100739.97;;;5.15;49.67
7178;BME280;3630;42.146;24.756;2023-02-14T04:40:33;100752.53;;;5.12;49.70
7178;BME280;3630;42.146;24.756;2023-02-14T04:43:01;100746.19;;;5.20;49.00
7178;BME280;3630;42.146;24.756;2023-02-14T04:45:29;100733.28;;;5.17;49.43
7178;BME280;3630;42.146;24.756;2023-02-14T04:47:56;100732.50;;;5.18;49.34
7178;BME280;3630;42.146;24.756;2023-02-14T04:50:22;100726.44;;;5.16;48.80
7178;BME280;3630;42.146;24.756;2023-02-14T04:52:50;100739.44;;;5.21;48.94
7178;BME280;3630;42.146;24.756;2023-02-14T04:55:17;100720.53;;;5.17;48.42
7178;BME280;3630;42.146;24.756;2023-02-14T04:57:44;100737.31;;;5.28;48.17
7178;BME280;3630;42.146;24.756;2023-02-14T05:00:13;100728.78;;;5.28;48.83
7178;BME280;3630;42.146;24.756;2023-02-14T05:02:40;100716.69;;;5.24;48.22
7178;BME280;3630;42.146;24.756;2023-02-14T05:05:07;100720.97;;;5.25;47.96
7178;BME280;3630;42.146;24.756;2023-02-14T05:07:34;100709.03;;;5.24;48.80
7178;BME280;3630;42.146;24.756;2023-02-14T05:10:01;100701.28;;;5.22;49.43
7178;BME280;3630;42.146;24.756;2023-02-14T05:12:28;100702.53;;;5.14;48.83
7178;BME280;3630;42.146;24.756;2023-02-14T05:14:55;100696.41;;;5.11;48.55
7178;BME280;3630;42.146;24.756;2023-02-14T05:17:23;100714.13;;;5.09;48.95
7178;BME280;3630;42.146;24.756;2023-02-14T05:19:50;100705.63;;;5.09;49.31
7178;BME280;3630;42.146;24.756;2023-02-14T05:22:17;100712.84;;;5.16;49.60
7178;BME280;3630;42.146;24.756;2023-02-14T05:24:44;100720.00;;;5.08;49.06
7178;BME280;3630;42.146;24.756;2023-02-14T05:27:11;100717.63;;;5.11;49.44
7178;BME280;3630;42.146;24.756;2023-02-14T05:29:38;100723.72;;;5.13;49.29
7178;BME280;3630;42.146;24.756;2023-02-14T05:32:04;100728.81;;;5.13;49.71
7178;BME280;3630;42.146;24.756;2023-02-14T05:34:33;100730.19;;;5.08;49.57
7178;BME280;3630;42.146;24.756;2023-02-14T05:36:59;100724.56;;;5.14;49.77
7178;BME280;3630;42.146;24.756;2023-02-14T05:39:27;100718.63;;;5.13;49.69
7178;BME280;3630;42.146;24.756;2023-02-14T05:41:54;100721.50;;;5.19;50.28
7178;BME280;3630;42.146;24.756;2023-02-14T05:44:21;100721.50;;;5.19;50.15
7178;BME280;3630;42.146;24.756;2023-02-14T05:46:48;100707.03;;;5.18;50.06
7178;BME280;3630;42.146;24.756;2023-02-14T05:49:15;100716.69;;;5.24;50.23
7178;BME280;3630;42.146;24.756;2023-02-14T05:51:44;100712.72;;;5.29;49.73
7178;BME280;3630;42.146;24.756;2023-02-14T05:54:11;100704.38;;;5.31;48.93
7178;BME280;3630;42.146;24.756;2023-02-14T05:56:38;100698.03;;;5.40;49.92
7178;BME280;3630;42.146;24.756;2023-02-14T05:59:05;100693.72;;;5.38;49.35
7178;BME280;3630;42.146;24.756;2023-02-14T06:01:31;100687.22;;;5.44;49.50
7178;BME280;3630;42.146;24.756;2023-02-14T06:03:58;100697.50;;;5.45;48.97
7178;BME280;3630;42.146;24.756;2023-02-14T06:06:25;100700.22;;;5.48;48.65
7178;BME280;3630;42.146;24.756;2023-02-14T06:08:53;100702.22;;;5.54;48.69
7178;BME280;3630;42.146;24.756;2023-02-14T06:11:20;100699.00;;;5.72;48.31
7178;BME280;3630;42.146;24.756;2023-02-14T06:13:47;100709.13;;;5.71;47.98
7178;BME280;3630;42.146;24.756;2023-02-14T06:16:13;100697.00;;;5.67;48.12
7178;BME280;3630;42.146;24.756;2023-02-14T06:18:40;100703.56;;;5.78;47.66
7178;BME280;3630;42.146;24.756;2023-02-14T06:21:07;100694.38;;;5.96;47.38
7178;BME280;3630;42.146;24.756;2023-02-14T06:23:34;100693.34;;;5.92;47.84
7178;BME280;3630;42.146;24.756;2023-02-14T06:26:02;100696.34;;;5.85;47.67
7178;BME280;3630;42.146;24.756;2023-02-14T06:28:29;100698.06;;;5.85;47.49
7178;BME280;3630;42.146;24.756;2023-02-14T06:30:55;100695.03;;;5.92;47.58
7178;BME280;3630;42.146;24.756;2023-02-14T06:33:22;100701.91;;;5.93;47.32
7178;BME280;3630;42.146;24.756;2023-02-14T06:35:49;100685.59;;;5.91;48.04
7178;BME280;3630;42.146;24.756;2023-02-14T06:38:18;100687.00;;;6.01;47.41
7178;BME280;3630;42.146;24.756;2023-02-14T06:40:45;100692.00;;;5.99;48.04
7178;BME280;3630;42.146;24.756;2023-02-14T06:43:13;100694.09;;;6.06;47.28
7178;BME280;3630;42.146;24.756;2023-02-14T06:45:40;100698.63;;;6.12;47.91
7178;BME280;3630;42.146;24.756;2023-02-14T06:48:08;100687.88;;;6.01;47.25
7178;BME280;3630;42.146;24.756;2023-02-14T06:50:35;100709.41;;;6.22;47.53
7178;BME280;3630;42.146;24.756;2023-02-14T06:53:02;100710.34;;;6.24;46.98
7178;BME280;3630;42.146;24.756;2023-02-14T06:55:29;100701.09;;;6.26;47.09
7178;BME280;3630;42.146;24.756;2023-02-14T06:57:55;100709.91;;;6.31;47.50
7178;BME280;3630;42.146;24.756;2023-02-14T07:00:24;100703.25;;;6.35;46.77
7178;BME280;3630;42.146;24.756;2023-02-14T07:02:51;100708.94;;;6.45;47.13
7178;BME280;3630;42.146;24.756;2023-02-14T07:05:17;100699.69;;;6.47;46.76
7178;BME280;3630;42.146;24.756;2023-02-14T07:07:44;100698.00;;;6.48;47.74
7178;BME280;3630;42.146;24.756;2023-02-14T07:10:11;100663.47;;;6.38;47.03
7178;BME280;3630;42.146;24.756;2023-02-14T07:12:38;100706.59;;;6.66;46.90
7178;BME280;3630;42.146;24.756;2023-02-14T07:15:06;100698.16;;;6.67;47.12
7178;BME280;3630;42.146;24.756;2023-02-14T07:17:35;100701.72;;;6.71;47.28
7178;BME280;3630;42.146;24.756;2023-02-14T07:20:02;100697.88;;;6.79;46.96
7178;BME280;3630;42.146;24.756;2023-02-14T07:22:30;100699.00;;;6.84;46.99
7178;BME280;3630;42.146;24.756;2023-02-14T07:24:57;100706.16;;;6.91;46.82
7178;BME280;3630;42.146;24.756;2023-02-14T07:27:24;100698.88;;;6.98;46.71
7178;BME280;3630;42.146;24.756;2023-02-14T07:29:51;100693.69;;;6.97;46.88
7178;BME280;3630;42.146;24.756;2023-02-14T07:32:18;100690.63;;;7.04;47.16
7178;BME280;3630;42.146;24.756;2023-02-14T07:34:46;100682.75;;;6.99;47.02
7178;BME280;3630;42.146;24.756;2023-02-14T07:37:13;100687.13;;;7.02;46.34
7178;BME280;3630;42.146;24.756;2023-02-14T07:39:41;100684.94;;;7.09;47.02
7178;BME280;3630;42.146;24.756;2023-02-14T07:42:07;100680.34;;;7.20;46.62
7178;BME280;3630;42.146;24.756;2023-02-14T07:44:35;100684.25;;;7.30;46.84
7178;BME280;3630;42.146;24.756;2023-02-14T07:47:03;100688.78;;;7.35;46.72
7178;BME280;3630;42.146;24.756;2023-02-14T07:49:30;100679.34;;;7.52;46.24
7178;BME280;3630;42.146;24.756;2023-02-14T07:51:58;100688.53;;;7.48;46.44
7178;BME280;3630;42.146;24.756;2023-02-14T07:54:25;100681.97;;;7.53;46.32
7178;BME280;3630;42.146;24.756;2023-02-14T07:56:52;100681.03;;;7.51;46.54
7178;BME280;3630;42.146;24.756;2023-02-14T07:59:19;100680.00;;;7.48;46.63
7178;BME280;3630;42.146;24.756;2023-02-14T08:01:46;100671.44;;;7.47;46.76
7178;BME280;3630;42.146;24.756;2023-02-14T08:04:12;100666.47;;;7.50;46.43
7178;BME280;3630;42.146;24.756;2023-02-14T08:06:39;100679.56;;;7.56;46.66
7178;BME280;3630;42.146;24.756;2023-02-14T08:09:08;100678.03;;;7.60;45.90
7178;BME280;3630;42.146;24.756;2023-02-14T08:11:35;100677.28;;;7.62;45.97
7178;BME280;3630;42.146;24.756;2023-02-14T08:14:20;100688.75;;;7.70;46.30
7178;BME280;3630;42.146;24.756;2023-02-14T08:16:47;100688.44;;;7.82;46.29
7178;BME280;3630;42.146;24.756;2023-02-14T08:19:13;100672.22;;;7.82;45.85
7178;BME280;3630;42.146;24.756;2023-02-14T08:21:40;100694.19;;;7.96;45.71
7178;BME280;3630;42.146;24.756;2023-02-14T08:24:08;100698.78;;;8.03;46.00
7178;BME280;3630;42.146;24.756;2023-02-14T08:26:35;100701.34;;;8.03;46.17
7178;BME280;3630;42.146;24.756;2023-02-14T08:29:02;100701.66;;;8.10;46.33
7178;BME280;3630;42.146;24.756;2023-02-14T08:31:30;100708.25;;;8.23;45.23
7178;BME280;3630;42.146;24.756;2023-02-14T08:33:57;100706.00;;;8.29;45.63
7178;BME280;3630;42.146;24.756;2023-02-14T08:36:24;100698.50;;;8.34;45.79
7178;BME280;3630;42.146;24.756;2023-02-14T08:38:51;100695.06;;;8.33;45.49
7178;BME280;3630;42.146;24.756;2023-02-14T08:41:21;100709.34;;;8.47;45.42
7178;BME280;3630;42.146;24.756;2023-02-14T08:43:48;100707.34;;;8.59;45.34
7178;BME280;3630;42.146;24.756;2023-02-14T08:46:15;100711.72;;;8.62;45.10
7178;BME280;3630;42.146;24.756;2023-02-14T08:48:42;100704.47;;;8.72;44.85
7178;BME280;3630;42.146;24.756;2023-02-14T08:51:11;100706.28;;;8.75;44.89
7178;BME280;3630;42.146;24.756;2023-02-14T08:53:39;100699.63;;;8.78;44.74
7178;BME280;3630;42.146;24.756;2023-02-14T08:56:07;100693.19;;;8.88;44.03
7178;BME280;3630;42.146;24.756;2023-02-14T08:58:36;100684.69;;;8.89;44.23
7178;BME280;3630;42.146;24.756;2023-02-14T09:01:07;100673.94;;;8.98;44.17
7178;BME280;3630;42.146;24.756;2023-02-14T09:03:34;100683.50;;;9.02;43.69
7178;BME280;3630;42.146;24.756;2023-02-14T09:06:02;100685.13;;;9.00;43.79
7178;BME280;3630;42.146;24.756;2023-02-14T09:08:29;100681.16;;;9.06;43.86
7178;BME280;3630;42.146;24.756;2023-02-14T09:10:56;100647.69;;;9.03;43.57
7178;BME280;3630;42.146;24.756;2023-02-14T09:13:23;100658.38;;;9.14;43.46
7178;BME280;3630;42.146;24.756;2023-02-14T09:15:51;100659.81;;;9.28;43.37
7178;BME280;3630;42.146;24.756;2023-02-14T09:18:22;100658.47;;;9.37;43.02
7178;BME280;3630;42.146;24.756;2023-02-14T09:20:50;100647.34;;;9.37;43.31
7178;BME280;3630;42.146;24.756;2023-02-14T09:23:18;100648.69;;;9.49;43.33
7178;BME280;3630;42.146;24.756;2023-02-14T09:25:45;100660.59;;;9.47;43.21
7178;BME280;3630;42.146;24.756;2023-02-14T09:28:12;100652.31;;;9.55;42.92
7178;BME280;3630;42.146;24.756;2023-02-14T09:30:38;100659.22;;;9.56;42.77
7178;BME280;3630;42.146;24.756;2023-02-14T09:33:07;100642.53;;;9.67;42.29
7178;BME280;3630;42.146;24.756;2023-02-14T09:35:34;100640.38;;;9.77;42.61
7178;BME280;3630;42.146;24.756;2023-02-14T09:38:01;100647.47;;;9.84;42.00
7178;BME280;3630;42.146;24.756;2023-02-14T09:40:43;100633.59;;;9.79;42.06
7178;BME280;3630;42.146;24.756;2023-02-14T09:43:17;100642.19;;;9.80;42.09
7178;BME280;3630;42.146;24.756;2023-02-14T09:45:51;100639.72;;;9.83;42.33
7178;BME280;3630;42.146;24.756;2023-02-14T09:48:27;100631.50;;;9.91;42.18
7178;BME280;3630;42.146;24.756;2023-02-14T09:50:59;100623.78;;;9.91;42.08
7178;BME280;3630;42.146;24.756;2023-02-14T09:53:29;100620.38;;;9.92;41.86
7178;BME280;3630;42.146;24.756;2023-02-14T09:56:03;100633.19;;;9.91;41.48
7178;BME280;3630;42.146;24.756;2023-02-14T09:58:39;100605.97;;;9.96;41.63
7178;BME280;3630;42.146;24.756;2023-02-14T10:01:13;100626.75;;;10.02;41.38
7178;BME280;3630;42.146;24.756;2023-02-14T10:04:01;100602.56;;;10.19;41.39
7178;BME280;3630;42.146;24.756;2023-02-14T10:06:53;100597.72;;;10.27;40.69
7178;BME280;3630;42.146;24.756;2023-02-14T10:09:39;100600.44;;;10.31;40.90
7178;BME280;3630;42.146;24.756;2023-02-14T10:12:15;100589.91;;;10.24;41.15
7178;BME280;3630;42.146;24.756;2023-02-14T10:14:44;100595.28;;;10.31;41.44
7178;BME280;3630;42.146;24.756;2023-02-14T10:17:15;100596.31;;;10.36;41.07
7178;BME280;3630;42.146;24.756;2023-02-14T10:19:50;100560.53;;;10.17;40.97
7178;BME280;3630;42.146;24.756;2023-02-14T10:22:22;100583.53;;;10.38;41.02
7178;BME280;3630;42.146;24.756;2023-02-14T10:24:53;100574.13;;;10.38;40.69
7178;BME280;3630;42.146;24.756;2023-02-14T10:27:29;100583.94;;;10.50;40.67
7178;BME280;3630;42.146;24.756;2023-02-14T10:29:58;100587.75;;;10.61;40.57
7178;BME280;3630;42.146;24.756;2023-02-14T10:32:30;100610.41;;;10.73;39.85
7178;BME280;3630;42.146;24.756;2023-02-14T10:35:05;100578.66;;;10.71;40.23
7178;BME280;3630;42.146;24.756;2023-02-14T10:37:47;100546.63;;;10.61;39.88
7178;BME280;3630;42.146;24.756;2023-02-14T10:40:34;100581.13;;;10.94;39.56
7178;BME280;3630;42.146;24.756;2023-02-14T10:43:16;100572.00;;;10.77;39.10
7178;BME280;3630;42.146;24.756;2023-02-14T10:45:50;100578.69;;;10.72;39.33
7178;BME280;3630;42.146;24.756;2023-02-14T10:48:26;100563.28;;;10.72;39.64
7178;BME280;3630;42.146;24.756;2023-02-14T10:51:03;100550.41;;;10.72;39.65
7178;BME280;3630;42.146;24.756;2023-02-14T10:53:40;100562.88;;;10.60;39.92
7178;BME280;3630;42.146;24.756;2023-02-14T10:56:17;100551.63;;;10.56;40.54
7178;BME280;3630;42.146;24.756;2023-02-14T10:58:48;100550.75;;;10.56;40.14
7178;BME280;3630;42.146;24.756;2023-02-14T11:01:17;100552.78;;;10.66;40.30
7178;BME280;3630;42.146;24.756;2023-02-14T11:03:51;100552.31;;;10.78;39.92
7178;BME280;3630;42.146;24.756;2023-02-14T11:06:20;100553.19;;;10.78;39.36
7178;BME280;3630;42.146;24.756;2023-02-14T11:08:47;100531.75;;;10.78;39.25
7178;BME280;3630;42.146;24.756;2023-02-14T11:11:17;100527.69;;;10.84;39.99
7178;BME280;3630;42.146;24.756;2023-02-14T11:13:47;100538.84;;;10.85;39.57
7178;BME280;3630;42.146;24.756;2023-02-14T11:16:27;100527.72;;;10.86;39.40
7178;BME280;3630;42.146;24.756;2023-02-14T11:19:08;100528.50;;;10.83;40.28
7178;BME280;3630;42.146;24.756;2023-02-14T11:21:38;100525.22;;;10.87;40.16
7178;BME280;3630;42.146;24.756;2023-02-14T11:24:16;100517.09;;;11.02;40.04
7178;BME280;3630;42.146;24.756;2023-02-14T11:26:45;100517.47;;;11.14;39.66
7178;BME280;3630;42.146;24.756;2023-02-14T11:29:14;100483.66;;;11.02;39.66
7178;BME280;3630;42.146;24.756;2023-02-14T11:31:42;100514.72;;;11.08;40.17
7178;BME280;3630;42.146;24.756;2023-02-14T11:34:23;100514.72;;;11.08;40.23
7178;BME280;3630;42.146;24.756;2023-02-14T11:36:54;100510.75;;;10.91;40.87
7178;BME280;3630;42.146;24.756;2023-02-14T11:39:26;100504.97;;;10.98;40.85
7178;BME280;3630;42.146;24.756;2023-02-14T11:41:55;100525.69;;;11.02;40.35
7178;BME280;3630;42.146;24.756;2023-02-14T11:44:25;100482.97;;;10.79;40.25
7178;BME280;3630;42.146;24.756;2023-02-14T11:46:53;100497.78;;;10.88;40.46
7178;BME280;3630;42.146;24.756;2023-02-14T11:49:29;100509.81;;;10.89;40.73
7178;BME280;3630;42.146;24.756;2023-02-14T11:52:00;100503.88;;;10.90;40.87
7178;BME280;3630;42.146;24.756;2023-02-14T11:54:36;100513.94;;;10.82;41.76
7178;BME280;3630;42.146;24.756;2023-02-14T11:57:05;100499.41;;;10.84;41.74
7178;BME280;3630;42.146;24.756;2023-02-14T11:59:37;100499.59;;;10.90;41.31
7178;BME280;3630;42.146;24.756;2023-02-14T12:02:24;100485.19;;;10.95;40.60
7178;BME280;3630;42.146;24.756;2023-02-14T12:04:55;100487.19;;;11.05;40.54
7178;BME280;3630;42.146;24.756;2023-02-14T12:07:28;100490.69;;;11.07;40.71
7178;BME280;3630;42.146;24.756;2023-02-14T12:10:18;100489.84;;;11.07;40.68
7178;BME280;3630;42.146;24.756;2023-02-14T12:12:53;100487.75;;;10.95;40.35
7178;BME280;3630;42.146;24.756;2023-02-14T12:15:35;100452.06;;;10.78;40.05
7178;BME280;3630;42.146;24.756;2023-02-14T12:21:19;100484.47;;;10.73;40.23
7178;BME280;3630;42.146;24.756;2023-02-14T12:23:57;100496.22;;;10.64;40.01
7178;BME280;3630;42.146;24.756;2023-02-14T12:26:29;100479.19;;;10.68;40.18
7178;BME280;3630;42.146;24.756;2023-02-14T12:29:03;100484.59;;;10.77;40.38
7178;BME280;3630;42.146;24.756;2023-02-14T12:31:31;100481.69;;;10.93;40.59
7178;BME280;3630;42.146;24.756;2023-02-14T12:33:58;100440.69;;;10.70;40.06
7178;BME280;3630;42.146;24.756;2023-02-14T12:36:37;100480.41;;;10.79;40.32
7178;BME280;3630;42.146;24.756;2023-02-14T12:39:16;100470.38;;;10.88;40.65
7178;BME280;3630;42.146;24.756;2023-02-14T12:41:50;100484.13;;;10.62;40.72
7178;BME280;3630;42.146;24.756;2023-02-14T12:44:31;100478.16;;;10.63;40.93
7178;BME280;3630;42.146;24.756;2023-02-14T12:47:13;100455.66;;;10.56;40.85
7178;BME280;3630;42.146;24.756;2023-02-14T12:52:54;100456.41;;;10.79;40.64
7178;BME280;3630;42.146;24.756;2023-02-14T12:55:35;100462.56;;;10.85;41.22
7178;BME280;3630;42.146;24.756;2023-02-14T12:58:17;100463.31;;;10.81;40.88
7178;BME280;3630;42.146;24.756;2023-02-14T13:00:58;100453.81;;;10.79;41.31
7178;BME280;3630;42.146;24.756;2023-02-14T13:03:49;100458.13;;;10.80;41.18
7178;BME280;3630;42.146;24.756;2023-02-14T13:06:28;100475.50;;;10.87;41.35
7178;BME280;3630;42.146;24.756;2023-02-14T13:09:21;100453.50;;;10.68;40.82
7178;BME280;3630;42.146;24.756;2023-02-14T13:12:03;100471.38;;;10.65;41.54
7178;BME280;3630;42.146;24.756;2023-02-14T13:14:44;100470.72;;;10.71;41.84
7178;BME280;3630;42.146;24.756;2023-02-14T13:17:20;100462.16;;;10.72;42.00
7178;BME280;3630;42.146;24.756;2023-02-14T13:19:55;100482.59;;;10.67;41.69
7178;BME280;3630;42.146;24.756;2023-02-14T13:22:26;100488.38;;;10.60;41.45
7178;BME280;3630;42.146;24.756;2023-02-14T13:24:57;100470.38;;;10.60;41.70
7178;BME280;3630;42.146;24.756;2023-02-14T13:27:30;100469.63;;;10.64;41.66
7178;BME280;3630;42.146;24.756;2023-02-14T13:30:00;100462.72;;;10.63;41.54
7178;BME280;3630;42.146;24.756;2023-02-14T13:32:31;100489.97;;;10.56;40.97
7178;BME280;3630;42.146;24.756;2023-02-14T13:35:00;100477.78;;;10.51;41.44
7178;BME280;3630;42.146;24.756;2023-02-14T13:37:28;100467.44;;;10.49;41.60